Clapham, United Kingdom
Current Conditions -  °F | °C
As of 8:50 AM on Sunday 26 Oct 2014 (Local Time) from EGLC Reporting Station
Overcast Overcast  
Wind Chill: 57°   Ceiling: 3000
Heat Index: 57°   Visibility: 6mi
Dew Point: 48°   Wind: 9mph
Humidity: 72%   Direction: 210°SSW
Pressure: 30.18"   Gusts: NA
Location:  51.46°N, 0.15°W
Report Text: EGLC 260750Z AUTO 21008KT 9999 OVC030/// 14/09 Q1022
Loading
Personal Weather Stations






























Interactive Weather Map
Tropical Storm Tracking
New forecast layout! Learn more

10-Day Weather Forecast

Advertisements
Track Severe Weather on mobile